createdAt,value
2022-10-11T00:00:51.345Z,13.11
2022-10-11T00:03:19.340Z,13.07
2022-10-11T00:05:47.487Z,13.11
2022-10-11T00:08:15.740Z,13.12
2022-10-11T00:10:43.951Z,13.08
2022-10-11T00:13:13.260Z,13.07
2022-10-11T00:15:41.535Z,13.07
2022-10-11T00:18:09.399Z,13.09
2022-10-11T00:20:37.268Z,13.12
2022-10-11T00:23:05.132Z,13.06
2022-10-11T00:25:33.159Z,13.10
2022-10-11T00:28:01.067Z,13.09
2022-10-11T00:30:32.090Z,13.05
2022-10-11T00:33:00.020Z,13.09
2022-10-11T00:35:27.898Z,13.10
2022-10-11T00:37:58.227Z,13.07
2022-10-11T00:40:26.311Z,13.06
2022-10-11T00:42:54.336Z,12.89
2022-10-11T00:46:04.703Z,12.98
2022-10-11T00:48:39.403Z,12.74
2022-10-11T00:51:15.044Z,12.58
2022-10-11T00:53:43.577Z,12.59
2022-10-11T00:56:16.718Z,12.50
2022-10-11T00:58:45.060Z,12.53
2022-10-11T01:01:14.672Z,12.53
2022-10-11T01:03:56.630Z,12.51
2022-10-11T01:06:36.950Z,12.56
2022-10-11T01:09:16.755Z,12.50
2022-10-11T01:11:58.836Z,12.56
2022-10-11T01:14:59.179Z,12.57
2022-10-11T01:17:51.649Z,12.58
2022-10-11T01:20:52.934Z,12.59
2022-10-11T01:24:22.814Z,12.57
2022-10-11T01:27:25.639Z,12.58
2022-10-11T01:30:22.733Z,12.59
2022-10-11T01:33:16.725Z,12.65
2022-10-11T01:36:04.970Z,12.56
2022-10-11T01:38:51.185Z,12.62
2022-10-11T01:41:38.175Z,12.57
2022-10-11T01:44:18.716Z,12.60
2022-10-11T01:46:59.435Z,12.51
2022-10-11T01:49:39.218Z,12.50
2022-10-11T01:52:19.081Z,12.44
2022-10-11T01:55:14.406Z,12.41
2022-10-11T01:58:08.129Z,12.44
2022-10-11T02:00:57.217Z,12.31
2022-10-11T02:03:46.312Z,12.27
2022-10-11T02:06:34.152Z,12.34
2022-10-11T02:09:21.882Z,12.39
2022-10-11T02:12:06.814Z,12.20
2022-10-11T02:14:50.847Z,12.27
2022-10-11T02:17:35.475Z,12.32
2022-10-11T02:20:22.016Z,12.41
2022-10-11T02:23:08.989Z,12.30
2022-10-11T02:25:51.290Z,12.32
2022-10-11T02:28:33.453Z,12.42
2022-10-11T02:31:17.992Z,12.31
2022-10-11T02:34:05.976Z,12.40
2022-10-11T02:36:55.629Z,12.41
2022-10-11T02:39:41.670Z,12.48
2022-10-11T02:42:26.970Z,12.53
2022-10-11T02:45:14.302Z,12.45
2022-10-11T02:47:54.794Z,12.43
2022-10-11T02:50:35.777Z,12.50
2022-10-11T02:53:15.454Z,12.55
2022-10-11T02:55:56.441Z,12.49
2022-10-11T02:58:36.687Z,12.56
2022-10-11T03:01:17.023Z,12.48
2022-10-11T03:03:58.755Z,12.48
2022-10-11T03:06:40.275Z,12.53
2022-10-11T03:09:21.025Z,12.55
2022-10-11T03:12:02.845Z,12.56
2022-10-11T03:14:44.326Z,12.52
2022-10-11T03:17:36.294Z,12.53
2022-10-11T03:20:17.779Z,12.55
2022-10-11T03:22:57.214Z,12.49
2022-10-11T03:25:37.177Z,12.49
2022-10-11T03:28:16.918Z,12.59
2022-10-11T03:30:56.615Z,12.61
2022-10-11T03:33:36.529Z,12.63
2022-10-11T03:36:16.340Z,12.64
2022-10-11T03:38:56.045Z,12.57
2022-10-11T03:41:36.106Z,12.49
2022-10-11T03:44:15.886Z,12.43
2022-10-11T03:46:57.152Z,12.46
2022-10-11T03:49:42.589Z,12.44
2022-10-11T03:52:23.037Z,12.43
2022-10-11T03:55:02.872Z,12.44
2022-10-11T03:57:42.780Z,12.46
2022-10-11T04:00:22.614Z,12.34
2022-10-11T04:03:03.902Z,12.25
2022-10-11T04:05:43.702Z,12.21
2022-10-11T04:08:42.701Z,12.27
2022-10-11T04:11:22.575Z,12.35
2022-10-11T04:14:02.243Z,12.33
2022-10-11T04:16:42.021Z,12.35
2022-10-11T04:19:21.780Z,12.34
2022-10-11T04:22:01.625Z,12.25
2022-10-11T04:24:41.489Z,12.24
2022-10-11T04:27:21.176Z,12.24
2022-10-11T04:30:01.167Z,12.19
2022-10-11T04:32:40.947Z,12.10
2022-10-11T04:35:20.741Z,11.81
2022-10-11T04:38:00.586Z,11.83
2022-10-11T04:40:40.354Z,11.73
2022-10-11T04:43:20.119Z,11.68
2022-10-11T04:45:59.867Z,11.65
2022-10-11T04:48:39.685Z,11.59
2022-10-11T04:51:20.687Z,11.51
2022-10-11T04:54:01.042Z,11.52
2022-10-11T04:56:40.595Z,11.56
2022-10-11T04:59:20.516Z,11.36
2022-10-11T05:02:00.269Z,11.33
2022-10-11T05:04:39.977Z,11.43
2022-10-11T05:07:19.936Z,11.43
2022-10-11T05:09:59.835Z,11.53
2022-10-11T05:12:39.517Z,11.55
2022-10-11T05:15:19.362Z,11.60
2022-10-11T05:17:59.093Z,11.64
2022-10-11T05:20:39.245Z,11.63
2022-10-11T05:23:18.646Z,11.60
2022-10-11T05:25:58.500Z,11.56
2022-10-11T05:28:38.307Z,11.56
2022-10-11T05:31:18.234Z,11.54
2022-10-11T05:33:57.880Z,11.36
2022-10-11T05:36:37.646Z,11.24
2022-10-11T05:39:17.566Z,11.30
2022-10-11T05:41:57.369Z,11.35
2022-10-11T05:44:37.035Z,11.40
2022-10-11T05:47:58.974Z,11.39
2022-10-11T05:50:39.470Z,11.36
2022-10-11T05:53:20.134Z,11.25
2022-10-11T05:56:00.182Z,11.27
2022-10-11T05:58:40.856Z,11.36
2022-10-11T06:22:29.468Z,9.43
2022-10-11T06:25:24.232Z,10.02
2022-10-11T06:28:24.343Z,10.38
2022-10-11T06:31:25.419Z,10.76
2022-10-11T06:34:19.483Z,10.91
2022-10-11T06:37:30.436Z,11.03
2022-10-11T06:40:35.939Z,11.01
2022-10-11T06:43:29.182Z,11.14
2022-10-11T06:46:28.134Z,11.20
2022-10-11T06:49:37.699Z,11.38
2022-10-11T06:52:36.320Z,11.34
2022-10-11T06:55:34.392Z,11.20
2022-10-11T06:58:29.134Z,11.47
2022-10-11T07:01:24.799Z,11.63
2022-10-11T07:04:18.964Z,11.46
2022-10-11T07:07:15.163Z,11.56
2022-10-11T07:10:10.609Z,11.56
2022-10-11T07:13:14.845Z,11.59
2022-10-11T07:16:14.004Z,11.70
2022-10-11T07:19:11.566Z,11.68
2022-10-11T07:22:29.495Z,11.63
2022-10-11T07:25:35.966Z,11.69
2022-10-11T07:28:33.082Z,11.85
2022-10-11T07:31:31.956Z,11.83
2022-10-11T07:34:41.721Z,11.87
2022-10-11T07:37:41.598Z,11.83
2022-10-11T07:40:43.465Z,11.99
2022-10-11T07:43:38.670Z,11.98
2022-10-11T07:46:38.161Z,11.95
2022-10-11T07:49:36.410Z,11.91
2022-10-11T07:52:32.867Z,11.91
2022-10-11T07:55:27.499Z,12.22
2022-10-11T07:58:22.101Z,12.30
2022-10-11T08:01:15.995Z,12.24
2022-10-11T08:04:28.366Z,12.29
2022-10-11T08:07:22.855Z,12.42
2022-10-11T08:10:22.436Z,12.60
2022-10-11T08:13:19.654Z,12.63
2022-10-11T08:16:46.351Z,12.57
2022-10-11T08:19:44.713Z,12.78
2022-10-11T08:22:42.494Z,12.85
2022-10-11T08:25:39.293Z,12.80
2022-10-11T08:28:45.469Z,12.88
2022-10-11T08:31:44.560Z,12.86
2022-10-11T08:34:42.073Z,13.07
2022-10-11T08:37:51.684Z,13.07
2022-10-11T08:40:49.120Z,13.18
2022-10-11T08:43:50.736Z,13.25
2022-10-11T08:46:49.749Z,13.33
2022-10-11T08:49:44.003Z,13.34
2022-10-11T08:52:47.825Z,13.34
2022-10-11T08:55:48.148Z,13.49
2022-10-11T08:58:47.577Z,13.59
2022-10-11T09:01:47.505Z,13.65
2022-10-11T09:04:28.248Z,13.54
2022-10-11T09:07:18.356Z,13.63
2022-10-11T09:10:11.538Z,13.70
2022-10-11T09:12:50.543Z,13.80
2022-10-11T09:15:28.846Z,13.79
2022-10-11T09:18:14.693Z,13.85
2022-10-11T09:20:53.375Z,13.88
2022-10-11T09:23:44.564Z,14.15
2022-10-11T09:26:23.092Z,14.12
2022-10-11T09:29:01.249Z,14.21
2022-10-11T09:31:29.678Z,14.27
2022-10-11T09:34:00.390Z,14.43
2022-10-11T09:36:36.478Z,14.47
2022-10-11T09:39:13.254Z,14.59
2022-10-11T09:41:50.320Z,14.40
2022-10-11T09:44:23.795Z,14.54
2022-10-11T09:46:53.129Z,14.76
2022-10-11T09:49:23.957Z,14.65
2022-10-11T09:51:57.024Z,14.66
2022-10-11T09:54:39.481Z,14.80
2022-10-11T09:57:20.482Z,14.77
2022-10-11T10:00:00.746Z,14.71
2022-10-11T10:02:28.841Z,14.65
2022-10-11T10:05:03.278Z,14.77
2022-10-11T10:07:33.794Z,14.72
2022-10-11T10:10:31.034Z,14.97
2022-10-11T10:13:02.836Z,15.03
2022-10-11T10:15:33.130Z,15.06
2022-10-11T10:18:01.392Z,15.08
2022-10-11T10:20:32.626Z,15.14
2022-10-11T10:23:04.118Z,15.28
2022-10-11T10:25:42.326Z,15.38
2022-10-11T10:28:21.696Z,15.33
2022-10-11T10:30:55.229Z,15.33
2022-10-11T10:33:25.335Z,15.40
2022-10-11T10:35:57.868Z,15.26
2022-10-11T10:38:30.265Z,15.21
2022-10-11T10:41:02.561Z,15.21
2022-10-11T10:43:36.769Z,15.32
2022-10-11T10:46:27.176Z,15.47
2022-10-11T10:49:41.618Z,15.43
2022-10-11T10:52:05.946Z,15.47
2022-10-11T10:54:44.402Z,15.52
2022-10-11T10:57:18.277Z,15.41
2022-10-11T11:00:03.909Z,15.44
2022-10-11T11:02:42.146Z,15.45
2022-10-11T11:05:21.789Z,15.53
2022-10-11T11:07:55.561Z,15.47
2022-10-11T11:10:28.252Z,15.40
2022-10-11T11:13:07.799Z,15.46
2022-10-11T11:15:42.230Z,15.49
2022-10-11T11:18:26.639Z,15.49
2022-10-11T11:21:08.970Z,15.56
2022-10-11T11:23:47.408Z,15.51
2022-10-11T11:26:24.734Z,15.47
2022-10-11T11:29:04.537Z,15.52
2022-10-11T11:31:57.087Z,15.53
2022-10-11T11:34:27.786Z,15.55
2022-10-11T11:36:59.053Z,15.55
2022-10-11T11:39:31.404Z,15.48
2022-10-11T11:42:02.788Z,15.59
2022-10-11T11:44:33.925Z,15.57
2022-10-11T11:47:08.199Z,15.60
2022-10-11T11:49:39.376Z,15.61
2022-10-11T11:52:12.932Z,15.64
2022-10-11T11:54:47.849Z,15.86
2022-10-11T11:57:25.997Z,15.73
2022-10-11T12:00:01.122Z,15.68
2022-10-11T12:02:49.026Z,15.71
2022-10-11T12:05:20.346Z,15.69
2022-10-11T12:07:52.668Z,15.67
2022-10-11T12:10:28.364Z,15.68
2022-10-11T12:13:08.025Z,15.75
2022-10-11T12:15:36.875Z,15.67
2022-10-11T12:18:15.564Z,15.65
2022-10-11T12:20:45.053Z,15.68
2022-10-11T12:23:45.260Z,15.71
2022-10-11T12:26:34.474Z,15.88
2022-10-11T12:29:34.735Z,16.02
2022-10-11T12:32:31.427Z,16.23
2022-10-11T12:35:33.342Z,16.39
2022-10-11T12:38:17.134Z,16.61
2022-10-11T12:40:47.187Z,16.86
2022-10-11T12:44:08.055Z,17.00
2022-10-11T12:47:15.274Z,17.22
2022-10-11T12:50:00.405Z,17.21
2022-10-11T12:52:37.744Z,17.21
2022-10-11T12:55:38.704Z,17.14
2022-10-11T12:58:28.303Z,17.08
2022-10-11T13:01:30.197Z,17.12
2022-10-11T13:04:04.160Z,16.95
2022-10-11T13:06:36.470Z,16.87
2022-10-11T13:09:13.840Z,16.90
2022-10-11T13:11:50.385Z,17.03
2022-10-11T13:14:21.481Z,17.18
2022-10-11T13:16:57.592Z,17.33
2022-10-11T13:19:28.631Z,17.42
2022-10-11T13:21:58.974Z,17.43
2022-10-11T13:24:28.973Z,17.54
2022-10-11T13:26:58.186Z,17.58
2022-10-11T13:29:32.523Z,17.65
2022-10-11T13:32:02.180Z,17.59
2022-10-11T13:34:37.652Z,17.41
2022-10-11T13:37:06.634Z,17.31
2022-10-11T13:39:37.881Z,17.20
2022-10-11T13:42:09.829Z,17.12
2022-10-11T13:44:40.265Z,17.15
2022-10-11T13:47:12.673Z,17.18
2022-10-11T13:49:46.060Z,17.21
2022-10-11T13:52:23.495Z,17.42
2022-10-11T13:54:57.876Z,17.48
2022-10-11T13:57:35.915Z,17.58
2022-10-11T14:00:23.442Z,17.67
2022-10-11T14:02:56.066Z,17.69
2022-10-11T14:05:32.507Z,17.69
2022-10-11T14:08:03.282Z,17.75
2022-10-11T14:10:32.363Z,17.92
2022-10-11T14:13:07.095Z,17.95
2022-10-11T14:15:37.031Z,17.67
2022-10-11T14:18:32.875Z,17.62
2022-10-11T14:21:24.756Z,17.51
2022-10-11T14:23:55.100Z,17.41
2022-10-11T14:26:24.792Z,17.27
2022-10-11T14:28:57.056Z,17.13
2022-10-11T14:31:27.491Z,17.15
2022-10-11T14:33:56.447Z,17.03
2022-10-11T14:36:26.295Z,17.06
2022-10-11T14:38:55.073Z,17.10
2022-10-11T14:41:23.130Z,17.08
2022-10-11T14:43:51.254Z,17.17
2022-10-11T14:46:23.370Z,17.27
2022-10-11T14:48:56.308Z,17.41
2022-10-11T14:51:30.802Z,17.54
2022-10-11T14:53:58.977Z,17.68
2022-10-11T14:56:26.933Z,17.73
2022-10-11T14:58:57.438Z,17.70
2022-10-11T15:01:25.932Z,17.66
2022-10-11T15:03:54.388Z,17.57
2022-10-11T15:06:26.258Z,17.44
2022-10-11T15:08:55.904Z,17.37
2022-10-11T15:11:24.433Z,17.34
2022-10-11T15:13:52.433Z,17.31
2022-10-11T15:16:22.137Z,17.35
2022-10-11T15:18:51.976Z,17.35
2022-10-11T15:21:21.662Z,17.34
2022-10-11T15:23:50.841Z,17.34
2022-10-11T15:26:24.299Z,17.40
2022-10-11T15:28:54.031Z,17.43
2022-10-11T15:31:22.719Z,17.38
2022-10-11T15:33:51.230Z,17.36
2022-10-11T15:36:21.245Z,17.37
2022-10-11T15:38:49.771Z,17.36
2022-10-11T15:41:21.164Z,17.22
2022-10-11T15:43:50.111Z,17.13
2022-10-11T15:46:22.056Z,17.12
2022-10-11T15:48:51.962Z,17.09
2022-10-11T15:51:20.749Z,17.13
2022-10-11T15:53:48.828Z,17.15
2022-10-11T15:56:19.655Z,17.13
2022-10-11T15:58:48.951Z,17.03
2022-10-11T16:01:19.037Z,17.00
2022-10-11T16:03:47.868Z,17.04
2022-10-11T16:06:16.285Z,17.02
2022-10-11T16:08:44.644Z,16.97
2022-10-11T16:11:13.926Z,16.98
2022-10-11T16:13:41.988Z,16.93
2022-10-11T16:16:13.528Z,16.91
2022-10-11T16:18:41.828Z,16.95
2022-10-11T16:21:13.126Z,16.88
2022-10-11T16:23:41.318Z,16.87
2022-10-11T16:26:13.379Z,16.86
2022-10-11T16:28:42.003Z,16.87
2022-10-11T16:31:18.212Z,16.85
2022-10-11T16:33:46.628Z,16.81
2022-10-11T16:36:36.305Z,16.84
2022-10-11T16:39:08.536Z,16.76
2022-10-11T16:41:37.392Z,16.74
2022-10-11T16:44:05.956Z,16.72
2022-10-11T16:46:35.759Z,16.69
2022-10-11T16:49:04.409Z,16.72
2022-10-11T16:51:32.339Z,16.72
2022-10-11T16:54:00.731Z,16.67
2022-10-11T16:56:28.951Z,16.63
2022-10-11T16:58:57.103Z,16.58
2022-10-11T17:01:25.603Z,16.58
2022-10-11T17:03:55.786Z,16.56
2022-10-11T17:06:25.276Z,16.54
2022-10-11T17:08:54.110Z,16.51
2022-10-11T17:11:22.617Z,16.51
2022-10-11T17:13:53.412Z,16.48
2022-10-11T17:16:22.698Z,16.49
2022-10-11T17:18:51.417Z,16.50
2022-10-11T17:21:22.791Z,16.42
2022-10-11T17:23:51.296Z,16.40
2022-10-11T17:26:21.358Z,16.37
2022-10-11T17:28:49.349Z,16.36
2022-10-11T17:31:18.368Z,16.37
2022-10-11T17:33:46.362Z,16.38
2022-10-11T17:36:17.541Z,16.34
2022-10-11T17:38:47.128Z,16.33
2022-10-11T17:41:15.080Z,16.31
2022-10-11T17:43:43.568Z,16.23
2022-10-11T17:46:14.223Z,16.17
2022-10-11T17:48:42.862Z,16.17
2022-10-11T17:51:12.901Z,16.05
2022-10-11T17:53:41.568Z,16.04
2022-10-11T17:56:13.070Z,16.04
2022-10-11T17:58:41.432Z,16.02
2022-10-11T18:01:12.227Z,15.99
2022-10-11T18:03:42.105Z,15.96
2022-10-11T18:06:11.836Z,15.94
2022-10-11T18:08:41.118Z,15.92
2022-10-11T18:11:16.178Z,15.94
2022-10-11T18:13:46.463Z,15.82
2022-10-11T18:16:15.346Z,15.86
2022-10-11T18:18:43.886Z,15.81
2022-10-11T18:21:12.566Z,15.73
2022-10-11T18:23:40.516Z,15.74
2022-10-11T18:26:15.230Z,15.72
2022-10-11T18:28:44.345Z,15.71
2022-10-11T18:31:15.071Z,15.68
2022-10-11T18:33:46.394Z,15.61
2022-10-11T18:36:17.289Z,15.62
2022-10-11T18:38:49.000Z,15.56
2022-10-11T18:41:20.578Z,15.57
2022-10-11T18:43:52.728Z,15.49
2022-10-11T18:46:22.068Z,15.53
2022-10-11T18:48:51.949Z,15.43
2022-10-11T18:51:22.274Z,15.37
2022-10-11T18:53:50.914Z,15.38
2022-10-11T18:56:22.117Z,15.41
2022-10-11T18:58:51.920Z,15.43
2022-10-11T19:01:22.404Z,15.38
2022-10-11T19:03:54.096Z,15.31
2022-10-11T19:06:23.785Z,15.18
2022-10-11T19:08:55.599Z,15.14
2022-10-11T19:11:25.465Z,15.13
2022-10-11T19:13:57.957Z,15.11
2022-10-11T19:16:27.466Z,15.16
2022-10-11T19:18:55.741Z,15.12
2022-10-11T19:21:26.608Z,15.17
2022-10-11T19:23:57.037Z,15.15
2022-10-11T19:26:29.199Z,15.04
2022-10-11T19:28:59.126Z,15.07
2022-10-11T19:31:27.628Z,15.02
2022-10-11T19:33:57.212Z,14.99
2022-10-11T19:36:25.730Z,15.04
2022-10-11T19:38:56.772Z,15.03
2022-10-11T19:41:28.240Z,14.97
2022-10-11T19:43:58.126Z,15.03
2022-10-11T19:46:49.996Z,15.02
2022-10-11T19:49:17.514Z,14.97
2022-10-11T19:51:45.843Z,14.88
2022-10-11T19:54:14.933Z,14.89
2022-10-11T19:56:44.747Z,14.95
2022-10-11T19:59:14.492Z,14.94
2022-10-11T20:01:46.652Z,14.89
2022-10-11T20:04:33.550Z,14.81
2022-10-11T20:07:04.402Z,14.81
2022-10-11T20:09:32.429Z,14.84
2022-10-11T20:12:01.892Z,14.84
2022-10-11T20:14:29.893Z,14.90
2022-10-11T20:16:57.829Z,14.86
2022-10-11T20:19:31.039Z,14.81
2022-10-11T20:21:59.954Z,14.78
2022-10-11T20:24:32.532Z,14.77
2022-10-11T20:27:04.153Z,14.81
2022-10-11T20:29:32.452Z,14.82
2022-10-11T20:32:00.431Z,14.71
2022-10-11T20:34:28.949Z,14.71
2022-10-11T20:36:57.006Z,14.76
2022-10-11T20:39:25.398Z,14.80
2022-10-11T20:41:53.370Z,14.78
2022-10-11T20:44:22.704Z,14.64
2022-10-11T20:46:50.769Z,14.77
2022-10-11T20:49:19.930Z,14.69
2022-10-11T20:51:48.104Z,14.72
2022-10-11T20:54:16.054Z,14.69
2022-10-11T20:56:44.433Z,14.69
2022-10-11T20:59:12.793Z,14.65
2022-10-11T21:01:42.991Z,14.69
2022-10-11T21:04:17.684Z,14.63
2022-10-11T21:06:45.759Z,14.54
2022-10-11T21:09:16.404Z,14.49
2022-10-11T21:11:45.017Z,14.37
2022-10-11T21:14:12.994Z,14.31
2022-10-11T21:16:42.523Z,14.33
2022-10-11T21:19:14.306Z,14.40
2022-10-11T21:21:50.887Z,14.47
2022-10-11T21:24:21.841Z,14.46
2022-10-11T21:26:49.775Z,14.42
2022-10-11T21:29:18.228Z,14.44
2022-10-11T21:31:47.683Z,14.45
2022-10-11T21:34:15.629Z,14.37
2022-10-11T21:36:43.777Z,14.25
2022-10-11T21:39:11.609Z,14.24
2022-10-11T21:41:41.931Z,14.22
2022-10-11T21:44:09.799Z,14.16
2022-10-11T21:47:05.020Z,14.22
2022-10-11T21:49:27.344Z,14.23
2022-10-11T21:51:55.426Z,14.19
2022-10-11T21:54:23.562Z,14.28
2022-10-11T21:56:51.551Z,14.34
2022-10-11T21:59:19.447Z,14.30
2022-10-11T22:01:47.522Z,14.19
2022-10-11T22:04:15.540Z,14.26
2022-10-11T22:06:44.778Z,14.33
2022-10-11T22:09:12.600Z,14.31
2022-10-11T22:11:40.561Z,14.29
2022-10-11T22:14:08.572Z,14.22
2022-10-11T22:16:36.936Z,14.17
2022-10-11T22:19:05.428Z,14.17
2022-10-11T22:21:33.444Z,14.11
2022-10-11T22:24:02.758Z,14.05
2022-10-11T22:26:31.880Z,14.13
2022-10-11T22:29:00.585Z,14.18
2022-10-11T22:31:29.522Z,14.15
2022-10-11T22:33:58.477Z,14.16
2022-10-11T22:36:26.902Z,14.17
2022-10-11T22:38:55.233Z,14.12
2022-10-11T22:41:24.796Z,14.08
2022-10-11T22:43:52.990Z,14.04
2022-10-11T22:46:20.878Z,14.06
2022-10-11T22:48:48.696Z,14.09
2022-10-11T22:51:16.850Z,14.04
2022-10-11T22:53:44.787Z,14.04
2022-10-11T22:56:12.645Z,14.04
2022-10-11T22:58:41.884Z,14.08
2022-10-11T23:01:10.687Z,14.09
2022-10-11T23:03:38.854Z,14.13
2022-10-11T23:06:07.109Z,14.13
2022-10-11T23:08:35.274Z,14.10
2022-10-11T23:11:04.770Z,14.06
2022-10-11T23:13:32.681Z,14.05
2022-10-11T23:16:06.864Z,14.04
2022-10-11T23:18:34.937Z,14.01
2022-10-11T23:21:03.853Z,14.05
2022-10-11T23:23:32.215Z,14.02
2022-10-11T23:26:05.076Z,13.97
2022-10-11T23:28:33.554Z,13.97
2022-10-11T23:31:07.247Z,13.94
2022-10-11T23:33:35.286Z,13.95
2022-10-11T23:36:03.488Z,13.94
2022-10-11T23:38:31.309Z,13.94
2022-10-11T23:40:59.444Z,13.91
2022-10-11T23:43:27.240Z,13.91
2022-10-11T23:45:55.871Z,13.88
2022-10-11T23:48:25.183Z,13.93
2022-10-11T23:50:53.108Z,13.90
2022-10-11T23:53:21.075Z,13.81
2022-10-11T23:55:48.880Z,13.82
2022-10-11T23:58:16.733Z,13.65
